Augusta, Montana
Current Conditions -  °F | °C
As of 9:53 PM on Tuesday 25 Nov 2014 (Local Time) from KGTF Reporting Station
Overcast Overcast  
Wind Chill: 22°   Ceiling: 4600
Heat Index: 31°   Visibility: 10mi
Dew Point: 24°   Wind: 10mph
Humidity: 76%   Direction: 190°S
Pressure: 30.13"   Gusts: NA
Location:  47.49°N, 112.4°W
Report Text: KGTF 260453Z 19009KT 10SM OVC046 M01/M04 A3013 RMK AO2 SLP235 T10061044
Loading
Personal Weather Stations






























Interactive Weather Map New forecast layout! Learn more

10-Day Weather Forecast

Advertisements
Track Severe Weather on mobile